Time;durP1;ratioP1;P1;durP2;ratioP2;P2;SDS_P1;SDS_P2;PMS_P1;PMS_P2;Temp;Humidity;BMP_temperature;BMP_pressure;BME280_temperature;BME280_humidity;BME280_pressure;Samples;Min_cycle;Max_cycle;Signal;HPM_P1;HPM_P2
2021/04/26 00:01:29;;;;;;;5.05;3.10;;;11.00;81.20;;;;;;5114888;28;20663;-69
2021/04/26 00:03:55;;;;;;;3.25;2.65;;;11.00;81.30;;;;;;5099405;28;20295;-69
2021/04/26 00:06:21;;;;;;;4.10;3.50;;;11.00;81.30;;;;;;5093706;28;20216;-68
2021/04/26 00:08:47;;;;;;;5.20;3.63;;;11.00;81.50;;;;;;5094934;28;20599;-69
2021/04/26 00:11:14;;;;;;;5.85;3.65;;;10.90;81.40;;;;;;5093547;28;20202;-69
2021/04/26 00:13:40;;;;;;;5.53;3.17;;;10.90;81.60;;;;;;5094538;28;20274;-69
2021/04/26 00:16:07;;;;;;;3.20;2.88;;;10.90;81.70;;;;;;5107877;28;20200;-70
2021/04/26 00:18:33;;;;;;;4.32;3.45;;;10.90;81.80;;;;;;5105845;28;20200;-69
2021/04/26 00:20:59;;;;;;;4.07;3.28;;;10.90;81.80;;;;;;5094609;28;20205;-69
2021/04/26 00:23:26;;;;;;;2.88;2.60;;;10.90;81.80;;;;;;5097628;28;20229;-70
2021/04/26 00:25:52;;;;;;;4.00;3.30;;;10.80;81.80;;;;;;5097200;28;20667;-70
2021/04/26 00:28:18;;;;;;;4.25;3.03;;;10.80;81.90;;;;;;5102963;28;20266;-69
2021/04/26 00:30:44;;;;;;;4.97;3.70;;;10.80;82.00;;;;;;5094298;28;20267;-69
2021/04/26 00:33:11;;;;;;;3.28;2.83;;;10.80;82.10;;;;;;5094063;28;20201;-69
2021/04/26 00:35:37;;;;;;;5.82;3.40;;;10.80;82.20;;;;;;5110395;28;20199;-70
2021/04/26 00:38:04;;;;;;;4.45;3.35;;;10.80;82.30;;;;;;5112463;28;20193;-69
2021/04/26 00:40:30;;;;;;;4.65;2.63;;;10.70;82.00;;;;;;5100831;28;20193;-69
2021/04/26 00:42:56;;;;;;;3.50;2.40;;;10.70;82.20;;;;;;5094121;28;20197;-69
2021/04/26 00:45:25;;;;;;;3.97;2.85;;;10.70;82.10;;;;;;5094188;28;20197;-69
2021/04/26 00:47:53;;;;;;;3.22;2.65;;;10.70;82.10;;;;;;5093635;28;20201;-69
2021/04/26 00:50:22;;;;;;;5.88;3.25;;;10.70;82.00;;;;;;5093840;28;20212;-69
2021/04/26 00:52:50;;;;;;;3.45;3.15;;;10.70;81.80;;;;;;5093770;28;20197;-70
2021/04/26 00:55:19;;;;;;;3.35;2.30;;;10.70;81.90;;;;;;5105621;28;20204;-70
2021/04/26 00:57:45;;;;;;;3.10;2.80;;;10.70;81.90;;;;;;5106221;28;20341;-69
2021/04/26 01:00:12;;;;;;;3.80;2.83;;;10.70;81.90;;;;;;5093506;28;20205;-69
2021/04/26 01:02:39;;;;;;;2.90;2.70;;;10.70;81.80;;;;;;5093650;28;20205;-70
2021/04/26 01:05:09;;;;;;;5.03;2.80;;;10.70;81.80;;;;;;5092062;28;20280;-69
2021/04/26 01:07:38;;;;;;;3.63;2.80;;;10.70;81.80;;;;;;5110396;28;20208;-69
2021/04/26 01:10:07;;;;;;;3.83;2.30;;;10.60;81.50;;;;;;5109609;28;20208;-70
2021/04/26 01:12:47;;;;;;;2.65;2.45;;;10.60;81.80;;;;;;5093746;28;20197;-69
2021/04/26 01:15:21;;;;;;;2.38;2.17;;;10.60;81.90;;;;;;5093295;28;20195;-69
2021/04/26 01:17:51;;;;;;;3.38;2.60;;;10.60;81.60;;;;;;5113132;28;20539;-69
2021/04/26 01:20:56;;;;;;;3.92;2.95;;;10.60;81.80;;;;;;5101563;28;20299;-69
2021/04/26 01:24:12;;;;;;;2.85;2.60;;;10.50;81.90;;;;;;5094427;28;20236;-69
2021/04/26 01:26:55;;;;;;;3.08;2.55;;;10.50;82.00;;;;;;5010888;28;20255;-69
2021/04/26 01:29:35;;;;;;;3.00;2.35;;;10.50;81.60;;;;;;5024838;28;20242;-69
2021/04/26 01:32:17;;;;;;;3.13;2.60;;;10.50;81.60;;;;;;5091584;28;20754;-70
2021/04/26 01:34:45;;;;;;;3.13;2.17;;;10.40;81.70;;;;;;5092380;28;20564;-69
2021/04/26 01:37:12;;;;;;;2.90;2.60;;;10.50;81.80;;;;;;5092655;28;20198;-69
2021/04/26 01:39:40;;;;;;;3.50;2.70;;;10.50;81.60;;;;;;5092855;28;20201;-69
2021/04/26 01:42:07;;;;;;;2.45;2.22;;;10.40;81.50;;;;;;5092577;28;20197;-69
2021/04/26 01:44:35;;;;;;;3.88;2.55;;;10.40;81.50;;;;;;5092200;28;20202;-69
2021/04/26 01:47:01;;;;;;;3.97;2.30;;;10.40;81.60;;;;;;5091973;28;20190;-69
2021/04/26 01:49:30;;;;;;;2.90;2.05;;;10.40;81.50;;;;;;5091775;28;20213;-70
2021/04/26 01:51:56;;;;;;;3.05;1.92;;;10.40;81.50;;;;;;5095782;28;20553;-69
2021/04/26 01:54:23;;;;;;;2.40;2.20;;;10.30;81.40;;;;;;5092660;28;20641;-69
2021/04/26 01:56:50;;;;;;;2.80;2.25;;;10.30;81.90;;;;;;5094822;28;20238;-70
2021/04/26 01:59:17;;;;;;;5.55;2.20;;;10.30;81.80;;;;;;5111149;28;20199;-69
2021/04/26 02:01:44;;;;;;;3.58;2.35;;;10.30;81.80;;;;;;5111700;28;20204;-69
2021/04/26 02:04:14;;;;;;;4.93;3.13;;;10.20;81.80;;;;;;5107147;28;20190;-69
2021/04/26 02:06:41;;;;;;;3.00;2.50;;;10.20;82.00;;;;;;5104774;28;20201;-69
2021/04/26 02:09:07;;;;;;;3.03;2.47;;;10.20;81.90;;;;;;5096630;28;20229;-69
2021/04/26 02:11:35;;;;;;;4.60;1.92;;;10.20;81.90;;;;;;5092599;28;20201;-69
2021/04/26 02:14:02;;;;;;;2.70;2.30;;;10.20;82.00;;;;;;5092173;28;20208;-69
2021/04/26 02:16:28;;;;;;;2.83;2.40;;;10.20;81.80;;;;;;5102021;28;20215;-69
2021/04/26 02:18:54;;;;;;;3.63;1.90;;;10.20;82.00;;;;;;5106195;28;20197;-69
2021/04/26 02:21:20;;;;;;;2.65;2.33;;;10.10;82.00;;;;;;5112584;28;20571;-69
2021/04/26 02:23:48;;;;;;;2.47;1.65;;;10.10;82.30;;;;;;5110885;28;20228;-68
2021/04/26 02:26:14;;;;;;;4.32;2.35;;;10.10;82.30;;;;;;5094788;28;20201;-68
2021/04/26 02:28:40;;;;;;;2.40;1.88;;;10.00;82.30;;;;;;5101751;28;20664;-68
2021/04/26 02:31:06;;;;;;;4.53;2.10;;;10.00;82.50;;;;;;5091403;28;20208;-68
2021/04/26 02:33:38;;;;;;;2.53;2.33;;;10.00;82.60;;;;;;5091721;28;20597;-69
2021/04/26 02:36:08;;;;;;;4.10;2.15;;;10.00;82.50;;;;;;5111557;28;20234;-69
2021/04/26 02:38:37;;;;;;;3.08;2.80;;;10.00;82.70;;;;;;5111244;28;20196;-69
2021/04/26 02:41:08;;;;;;;3.60;2.25;;;10.00;82.60;;;;;;5097999;28;20271;-69
2021/04/26 02:43:38;;;;;;;2.88;2.15;;;9.90;83.60;;;;;;5091539;28;20193;-68
2021/04/26 02:46:05;;;;;;;2.35;1.95;;;10.00;82.50;;;;;;5091647;28;20193;-69
2021/04/26 02:48:32;;;;;;;2.53;2.20;;;9.90;83.70;;;;;;5091090;28;20222;-69
2021/04/26 02:51:00;;;;;;;2.38;2.00;;;9.90;83.90;;;;;;5091647;28;20201;-69
2021/04/26 02:53:28;;;;;;;2.28;2.05;;;9.90;85.00;;;;;;5091874;28;20190;-69
2021/04/26 02:56:02;;;;;;;2.75;2.22;;;9.90;84.10;;;;;;5091585;28;20202;-70
2021/04/26 02:58:30;;;;;;;3.05;2.40;;;9.80;84.10;;;;;;5103978;28;20193;-69
2021/04/26 03:00:57;;;;;;;3.40;2.13;;;9.80;84.00;;;;;;5093860;28;20243;-70
2021/04/26 03:03:24;;;;;;;2.65;2.38;;;9.80;84.00;;;;;;5089970;28;20213;-68
2021/04/26 03:05:51;;;;;;;3.47;2.63;;;9.80;84.90;;;;;;5092859;28;20254;-69
2021/04/26 03:08:17;;;;;;;2.60;2.10;;;9.80;84.00;;;;;;5111226;28;20217;-69
2021/04/26 03:10:44;;;;;;;2.25;1.92;;;9.80;84.00;;;;;;5100531;28;20303;-69
2021/04/26 03:13:11;;;;;;;2.55;2.35;;;9.80;83.90;;;;;;5104288;28;20201;-70
2021/04/26 03:15:38;;;;;;;6.90;2.47;;;9.70;84.10;;;;;;5094466;28;20201;-70
2021/04/26 03:18:05;;;;;;;4.53;1.92;;;9.70;84.30;;;;;;5092404;28;20193;-70
2021/04/26 03:20:32;;;;;;;3.33;2.17;;;9.70;84.60;;;;;;5093573;28;20212;-69
2021/04/26 03:22:58;;;;;;;2.58;1.92;;;9.70;84.20;;;;;;5102299;28;20252;-70
2021/04/26 03:25:25;;;;;;;4.28;2.63;;;9.70;84.30;;;;;;5106597;28;20274;-69
2021/04/26 03:27:55;;;;;;;2.13;1.92;;;9.70;84.10;;;;;;5108145;28;20197;-69
2021/04/26 03:30:24;;;;;;;2.80;2.50;;;9.70;84.10;;;;;;5110167;28;20185;-69
2021/04/26 03:32:51;;;;;;;3.35;1.75;;;9.60;84.30;;;;;;5092476;28;20194;-69
2021/04/26 03:35:20;;;;;;;2.70;2.30;;;9.60;84.20;;;;;;5090664;28;20204;-69
2021/04/26 03:37:47;;;;;;;2.40;2.03;;;9.60;84.10;;;;;;5110386;28;20225;-69
2021/04/26 03:40:17;;;;;;;2.10;1.75;;;9.60;83.90;;;;;;5110943;28;20220;-69
2021/04/26 03:42:43;;;;;;;2.40;2.20;;;9.60;83.70;;;;;;5090547;28;20208;-69
2021/04/26 03:45:13;;;;;;;2.85;1.92;;;9.60;84.00;;;;;;5090747;28;20205;-68
2021/04/26 03:47:39;;;;;;;2.67;2.35;;;9.60;84.10;;;;;;5108195;28;20571;-69
2021/04/26 03:50:07;;;;;;;6.22;1.90;;;9.50;84.50;;;;;;5092127;28;20600;-69
2021/04/26 03:52:33;;;;;;;3.83;2.20;;;9.50;84.60;;;;;;5107165;28;20197;-68
2021/04/26 03:54:59;;;;;;;2.90;2.00;;;9.50;84.70;;;;;;5111015;28;20212;-69
2021/04/26 03:57:26;;;;;;;3.45;2.10;;;9.50;84.50;;;;;;5093173;28;20210;-68
2021/04/26 03:59:52;;;;;;;2.55;2.13;;;9.50;84.30;;;;;;5098808;28;20216;-70
2021/04/26 04:02:18;;;;;;;2.50;1.90;;;9.50;84.40;;;;;;5090374;28;20738;-69
2021/04/26 04:04:44;;;;;;;2.83;2.00;;;9.50;84.20;;;;;;5093774;28;20185;-69
2021/04/26 04:07:11;;;;;;;2.80;2.42;;;9.50;84.30;;;;;;5100599;28;20197;-69
2021/04/26 04:09:37;;;;;;;2.40;2.20;;;9.50;84.20;;;;;;5110796;28;20228;-69
2021/04/26 04:12:04;;;;;;;2.90;2.10;;;9.50;84.20;;;;;;5109783;28;20278;-69
2021/04/26 04:14:30;;;;;;;2.83;2.35;;;9.40;83.90;;;;;;5111109;28;20208;-69
2021/04/26 04:16:57;;;;;;;2.88;2.20;;;9.40;84.10;;;;;;5098660;28;20735;-69
2021/04/26 04:19:23;;;;;;;3.25;2.30;;;9.40;84.20;;;;;;5090213;28;20209;-69
2021/04/26 04:21:49;;;;;;;3.53;2.40;;;9.40;84.40;;;;;;5102679;28;20262;-69
2021/04/26 04:24:16;;;;;;;3.40;2.83;;;9.40;84.60;;;;;;5088736;28;20233;-70
2021/04/26 04:26:42;;;;;;;2.42;1.75;;;9.40;84.60;;;;;;5090306;28;20193;-69
2021/04/26 04:29:08;;;;;;;2.70;2.22;;;9.40;84.30;;;;;;5089498;28;20209;-69
2021/04/26 04:31:34;;;;;;;2.97;2.60;;;9.30;84.60;;;;;;5090389;28;20208;-69
2021/04/26 04:34:01;;;;;;;3.20;2.15;;;9.30;84.50;;;;;;5092857;28;20198;-69
2021/04/26 04:36:27;;;;;;;3.03;2.65;;;9.30;84.60;;;;;;5103897;28;20257;-70
2021/04/26 04:38:53;;;;;;;3.67;2.22;;;9.30;84.40;;;;;;5112160;28;20204;-69
2021/04/26 04:41:20;;;;;;;3.55;2.70;;;9.30;84.30;;;;;;5104014;28;20193;-69
2021/04/26 04:43:46;;;;;;;3.20;2.72;;;9.30;84.50;;;;;;5111350;28;20571;-70
2021/04/26 04:46:12;;;;;;;3.63;2.38;;;9.30;84.30;;;;;;5094166;28;20193;-70
2021/04/26 04:48:40;;;;;;;4.75;2.33;;;9.30;84.50;;;;;;5105500;28;20251;-70
2021/04/26 04:51:06;;;;;;;4.60;3.50;;;9.20;84.80;;;;;;5097049;28;20197;-70
2021/04/26 04:53:32;;;;;;;3.03;2.28;;;9.20;85.50;;;;;;5093876;28;20734;-70
2021/04/26 04:55:59;;;;;;;6.53;2.60;;;9.20;84.80;;;;;;5113859;28;20193;-70
2021/04/26 04:58:26;;;;;;;3.75;2.38;;;9.30;84.80;;;;;;5102418;28;20193;-70
2021/04/26 05:00:52;;;;;;;2.38;2.17;;;9.20;84.30;;;;;;5093657;28;20224;-70
2021/04/26 05:03:18;;;;;;;3.70;1.92;;;9.20;84.60;;;;;;5097417;28;20194;-71
2021/04/26 05:05:44;;;;;;;3.22;2.13;;;9.20;84.80;;;;;;5110336;28;20193;-71
2021/04/26 05:08:10;;;;;;;2.55;2.00;;;9.20;84.70;;;;;;5106456;28;20205;-69
2021/04/26 05:10:37;;;;;;;2.85;2.00;;;9.20;84.80;;;;;;5093631;28;20213;-69
2021/04/26 05:13:03;;;;;;;4.82;2.47;;;9.20;84.70;;;;;;5100568;28;20200;-68
2021/04/26 05:15:30;;;;;;;3.58;2.50;;;9.20;84.60;;;;;;5101436;28;20197;-69
2021/04/26 05:17:57;;;;;;;3.38;2.20;;;9.20;84.60;;;;;;5093062;28;20641;-69
2021/04/26 05:20:23;;;;;;;4.50;2.35;;;9.30;84.40;;;;;;5093122;28;20595;-69
2021/04/26 05:22:50;;;;;;;3.58;2.20;;;9.20;84.50;;;;;;5103467;28;20286;-69
2021/04/26 05:25:16;;;;;;;3.95;2.15;;;9.20;84.50;;;;;;5096392;28;20245;-69
2021/04/26 05:27:42;;;;;;;2.30;2.10;;;9.20;84.60;;;;;;5093182;28;20201;-69
2021/04/26 05:30:10;;;;;;;5.03;2.53;;;9.20;84.80;;;;;;5092983;28;20214;-69
2021/04/26 05:32:37;;;;;;;3.38;2.38;;;9.20;84.90;;;;;;5093754;28;20557;-69
2021/04/26 05:35:05;;;;;;;4.93;2.25;;;9.10;85.40;;;;;;5096173;28;20197;-69
2021/04/26 05:37:31;;;;;;;2.50;2.10;;;9.20;85.40;;;;;;5092752;28;20209;-69
2021/04/26 05:39:57;;;;;;;3.30;1.80;;;9.30;84.90;;;;;;5092840;28;20202;-70
2021/04/26 05:42:24;;;;;;;4.45;2.33;;;9.50;83.70;;;;;;5095764;28;20189;-69
2021/04/26 05:44:50;;;;;;;3.38;2.30;;;9.60;82.70;;;;;;5092835;28;20208;-69
2021/04/26 05:47:16;;;;;;;2.53;2.30;;;9.90;81.50;;;;;;5093422;28;20511;-70
2021/04/26 05:49:43;;;;;;;2.50;2.30;;;10.10;78.90;;;;;;5099692;28;20220;-69
2021/04/26 05:52:10;;;;;;;3.92;2.40;;;10.40;77.80;;;;;;5112817;28;20585;-70
2021/04/26 05:54:36;;;;;;;2.00;1.80;;;10.50;77.40;;;;;;5092888;28;20562;-70
2021/04/26 05:57:02;;;;;;;5.28;3.08;;;10.70;75.70;;;;;;5108848;28;20193;-70
2021/04/26 05:59:28;;;;;;;3.00;2.38;;;10.90;75.10;;;;;;5110330;28;20255;-70
2021/04/26 06:01:55;;;;;;;4.13;2.33;;;11.00;74.20;;;;;;5094095;28;20216;-69
2021/04/26 06:04:21;;;;;;;3.25;2.38;;;11.20;73.50;;;;;;5104901;28;20230;-70
2021/04/26 06:06:48;;;;;;;3.45;2.40;;;11.30;72.70;;;;;;5107129;28;20196;-70
2021/04/26 06:09:14;;;;;;;3.50;1.73;;;11.50;72.10;;;;;;5112731;28;20223;-70
2021/04/26 06:11:41;;;;;;;2.63;2.17;;;11.60;71.40;;;;;;5101457;28;20197;-70
2021/04/26 06:14:07;;;;;;;4.93;2.00;;;11.80;70.90;;;;;;5112261;28;20219;-70
2021/04/26 06:16:34;;;;;;;4.32;2.28;;;11.90;70.40;;;;;;5103529;28;20193;-69
2021/04/26 06:19:00;;;;;;;4.15;1.95;;;12.00;70.00;;;;;;5093553;28;20193;-70
2021/04/26 06:21:26;;;;;;;3.25;2.55;;;12.10;69.60;;;;;;5110723;28;20189;-70
2021/04/26 06:23:53;;;;;;;4.28;2.05;;;12.20;69.10;;;;;;5093219;28;20225;-70
2021/04/26 06:26:19;;;;;;;6.22;3.25;;;12.30;68.80;;;;;;5101309;28;20662;-70
2021/04/26 06:28:45;;;;;;;6.82;2.63;;;12.40;68.50;;;;;;5112056;28;20691;-69
2021/04/26 06:31:12;;;;;;;8.75;2.97;;;12.50;68.20;;;;;;5105492;28;20198;-69
2021/04/26 06:33:39;;;;;;;4.57;3.15;;;12.60;67.80;;;;;;5096070;28;20216;-70
2021/04/26 06:36:05;;;;;;;8.65;2.80;;;12.70;67.40;;;;;;5095384;28;20198;-69
2021/04/26 06:38:32;;;;;;;4.63;2.10;;;12.80;67.10;;;;;;5091996;28;20208;-69
2021/04/26 06:40:59;;;;;;;4.50;2.20;;;12.90;67.10;;;;;;5108824;28;20197;-69
2021/04/26 06:43:25;;;;;;;7.63;3.10;;;13.00;66.60;;;;;;5109417;28;20208;-68
2021/04/26 06:45:51;;;;;;;6.80;2.90;;;13.00;66.20;;;;;;5109154;28;20197;-69
2021/04/26 06:48:18;;;;;;;3.58;2.25;;;13.10;66.00;;;;;;5107031;28;20205;-68
2021/04/26 06:50:45;;;;;;;3.97;2.40;;;13.20;65.80;;;;;;5105262;28;20193;-69
2021/04/26 06:53:12;;;;;;;5.07;3.65;;;13.30;65.50;;;;;;5093774;28;20211;-69
2021/04/26 06:55:38;;;;;;;7.13;3.90;;;13.40;65.40;;;;;;5109543;28;20271;-69
2021/04/26 06:58:05;;;;;;;4.93;2.95;;;13.40;65.10;;;;;;5100859;28;20667;-71
2021/04/26 07:00:32;;;;;;;6.57;2.83;;;13.50;65.10;;;;;;5098263;28;20196;-69
2021/04/26 07:02:58;;;;;;;9.63;2.83;;;13.60;64.90;;;;;;5090547;28;20202;-70
2021/04/26 07:05:24;;;;;;;4.80;2.50;;;13.60;64.50;;;;;;5097076;28;20201;-69
2021/04/26 07:07:51;;;;;;;2.70;2.08;;;13.70;64.40;;;;;;5095965;28;20201;-70
2021/04/26 07:10:17;;;;;;;3.92;2.45;;;13.80;64.80;;;;;;5107544;28;20580;-71
2021/04/26 07:12:44;;;;;;;3.75;2.80;;;13.80;64.60;;;;;;5103387;28;20189;-69
2021/04/26 07:15:14;;;;;;;3.17;2.38;;;13.90;64.40;;;;;;5094485;28;20190;-69
2021/04/26 07:17:40;;;;;;;3.38;2.33;;;14.00;64.40;;;;;;5103867;28;20241;-70
2021/04/26 07:20:08;;;;;;;3.33;2.25;;;14.10;64.30;;;;;;5102225;28;20199;-69
2021/04/26 07:22:35;;;;;;;3.50;2.30;;;14.10;63.70;;;;;;5110844;28;20564;-69
2021/04/26 07:25:02;;;;;;;3.28;2.10;;;14.20;64.00;;;;;;5093771;28;20193;-69
2021/04/26 07:27:28;;;;;;;3.45;2.22;;;14.30;63.60;;;;;;5102398;28;20251;-69
2021/04/26 07:29:55;;;;;;;2.17;1.98;;;14.40;63.60;;;;;;5091811;28;20302;-69
2021/04/26 07:32:22;;;;;;;2.70;1.95;;;14.40;63.40;;;;;;5098666;28;20522;-69
2021/04/26 07:34:48;;;;;;;2.05;1.70;;;14.50;63.20;;;;;;5105332;28;20208;-70
2021/04/26 07:37:14;;;;;;;2.28;1.85;;;14.50;63.10;;;;;;5111033;28;20193;-70
2021/04/26 07:39:40;;;;;;;2.72;2.10;;;14.60;63.20;;;;;;5102470;28;20659;-70
2021/04/26 07:42:07;;;;;;;2.30;1.77;;;14.70;63.10;;;;;;5100890;28;20201;-70
2021/04/26 07:44:33;;;;;;;8.05;2.78;;;14.70;62.80;;;;;;5105697;28;20203;-70
2021/04/26 07:46:59;;;;;;;1.90;1.63;;;14.80;62.10;;;;;;5108311;28;20193;-70
2021/04/26 07:49:26;;;;;;;2.35;1.80;;;14.80;62.50;;;;;;5093523;28;20217;-69
2021/04/26 07:51:53;;;;;;;2.47;1.88;;;14.90;62.70;;;;;;5090777;28;20197;-70
2021/04/26 07:54:20;;;;;;;3.70;2.40;;;15.00;62.60;;;;;;5108541;28;20197;-70
2021/04/26 07:56:46;;;;;;;3.35;1.80;;;15.00;62.50;;;;;;5094608;28;20197;-70
2021/04/26 07:59:12;;;;;;;3.22;2.03;;;15.10;62.50;;;;;;5103340;28;20584;-70
2021/04/26 08:01:39;;;;;;;2.20;2.00;;;15.10;62.10;;;;;;5102457;28;20196;-70
2021/04/26 08:04:05;;;;;;;2.22;1.70;;;15.20;62.10;;;;;;5091350;28;20190;-70
2021/04/26 08:06:32;;;;;;;2.10;1.90;;;15.20;61.80;;;;;;5109508;28;20200;-70
2021/04/26 08:08:58;;;;;;;2.67;1.80;;;15.30;61.60;;;;;;5105656;28;20268;-70
2021/04/26 08:11:24;;;;;;;2.63;1.80;;;15.40;62.00;;;;;;5096386;28;20810;-70
2021/04/26 08:13:51;;;;;;;4.10;1.80;;;15.40;61.60;;;;;;5109390;28;20200;-70
2021/04/26 08:16:18;;;;;;;1.63;1.50;;;15.40;60.70;;;;;;5107096;28;20193;-70
2021/04/26 08:18:44;;;;;;;1.55;1.40;;;15.50;61.50;;;;;;5098199;28;20196;-70
2021/04/26 08:21:10;;;;;;;4.15;1.75;;;15.50;61.60;;;;;;5105983;28;20205;-70
2021/04/26 08:23:38;;;;;;;1.80;1.65;;;15.60;62.30;;;;;;5112932;28;20224;-71
2021/04/26 08:26:05;;;;;;;2.22;1.70;;;15.60;61.10;;;;;;5094110;28;20201;-70
2021/04/26 08:28:33;;;;;;;1.67;1.42;;;15.70;61.20;;;;;;5093752;28;20212;-70
2021/04/26 08:31:00;;;;;;;2.83;1.67;;;15.70;60.90;;;;;;5093051;28;20198;-70
2021/04/26 08:33:27;;;;;;;1.80;1.70;;;15.70;61.10;;;;;;5093842;28;20562;-73
2021/04/26 08:35:53;;;;;;;2.28;1.30;;;15.70;60.70;;;;;;5093598;28;20204;-70
2021/04/26 08:38:19;;;;;;;1.60;1.50;;;15.80;60.20;;;;;;5093233;28;20250;-70
2021/04/26 08:40:46;;;;;;;1.75;1.42;;;15.80;60.80;;;;;;5093947;28;20199;-70
2021/04/26 08:43:12;;;;;;;5.22;1.80;;;15.80;61.00;;;;;;5103474;28;20200;-71
2021/04/26 08:45:38;;;;;;;1.42;1.23;;;15.90;61.10;;;;;;5096503;28;20202;-70
2021/04/26 08:48:07;;;;;;;1.80;1.30;;;15.90;61.00;;;;;;5110815;28;20197;-74
2021/04/26 08:50:33;;;;;;;5.90;1.30;;;15.90;60.90;;;;;;5108307;28;20225;-70
2021/04/26 08:52:59;;;;;;;1.80;1.25;;;15.90;60.10;;;;;;5110492;28;20200;-71
2021/04/26 08:55:25;;;;;;;1.50;1.40;;;15.90;60.20;;;;;;5110939;28;20193;-70
2021/04/26 08:57:53;;;;;;;2.05;1.83;;;15.90;60.80;;;;;;5107036;28;20238;-71
2021/04/26 09:00:21;;;;;;;5.55;1.55;;;15.90;60.30;;;;;;5098990;28;20216;-70
2021/04/26 09:02:53;;;;;;;3.22;1.70;;;15.90;60.40;;;;;;5093724;28;20198;-70
2021/04/26 09:05:25;;;;;;;2.50;1.30;;;15.90;60.80;;;;;;5097131;28;20204;-70
2021/04/26 09:07:53;;;;;;;3.78;1.85;;;15.90;59.80;;;;;;5098650;28;20189;-71
2021/04/26 09:10:35;;;;;;;2.03;1.48;;;15.90;59.00;;;;;;5093731;28;20221;-70
2021/04/26 09:13:31;;;;;;;1.63;1.45;;;15.90;59.40;;;;;;5093785;28;20219;-69
2021/04/26 09:16:00;;;;;;;1.75;1.50;;;15.80;58.90;;;;;;5103335;28;20190;-69
2021/04/26 09:18:54;;;;;;;2.58;1.52;;;15.80;59.80;;;;;;5093435;28;20201;-70
2021/04/26 09:21:24;;;;;;;1.42;1.33;;;15.70;58.10;;;;;;5097098;28;20656;-69
2021/04/26 09:24:13;;;;;;;2.65;1.70;;;15.70;57.10;;;;;;5092617;28;20677;-68
2021/04/26 09:26:39;;;;;;;1.65;1.55;;;15.70;57.40;;;;;;5093571;28;20557;-69
2021/04/26 09:29:22;;;;;;;2.17;1.50;;;15.60;58.40;;;;;;5093051;28;20224;-69
2021/04/26 09:32:10;;;;;;;2.65;1.48;;;15.60;57.40;;;;;;5098402;28;20200;-71
2021/04/26 09:34:39;;;;;;;2.30;1.27;;;15.50;58.00;;;;;;5101189;28;20201;-70
2021/04/26 09:37:09;;;;;;;2.13;1.70;;;15.60;58.60;;;;;;5113076;28;20298;-68
2021/04/26 09:39:37;;;;;;;1.52;1.42;;;15.50;59.20;;;;;;5093947;28;20737;-69
2021/04/26 09:42:04;;;;;;;2.60;1.60;;;15.50;59.00;;;;;;5100589;28;20193;-68
2021/04/26 09:44:31;;;;;;;2.05;1.00;;;15.50;58.40;;;;;;5094233;28;20219;-69
2021/04/26 09:46:57;;;;;;;1.20;1.05;;;15.50;58.90;;;;;;5099659;28;20212;-69
2021/04/26 09:49:25;;;;;;;5.90;2.50;;;15.50;57.80;;;;;;5112289;28;20693;-69
2021/04/26 09:51:53;;;;;;;3.97;2.45;;;15.40;58.00;;;;;;5110396;28;20603;-69
2021/04/26 09:54:34;;;;;;;4.72;2.45;;;15.40;56.30;;;;;;5105962;28;20726;-69
2021/04/26 09:57:02;;;;;;;9.27;2.40;;;15.30;57.40;;;;;;5100202;28;20192;-69
2021/04/26 09:59:28;;;;;;;5.15;1.80;;;15.30;58.30;;;;;;5107418;28;20530;-69
2021/04/26 10:01:56;;;;;;;3.60;1.45;;;15.30;58.10;;;;;;5112213;28;20192;-69
2021/04/26 10:04:23;;;;;;;1.52;1.30;;;15.30;57.90;;;;;;5108772;28;20200;-69
2021/04/26 10:06:49;;;;;;;3.25;1.77;;;15.30;59.00;;;;;;5112952;28;20208;-69
2021/04/26 10:09:16;;;;;;;4.10;1.45;;;15.30;59.30;;;;;;5102375;28;20218;-69
2021/04/26 10:11:42;;;;;;;1.20;1.10;;;15.30;59.60;;;;;;5103161;28;20202;-69
2021/04/26 10:14:10;;;;;;;1.60;1.30;;;15.30;59.50;;;;;;5094240;28;20224;-69
2021/04/26 10:16:45;;;;;;;1.75;1.40;;;15.30;59.20;;;;;;5093749;28;20208;-69
2021/04/26 10:19:14;;;;;;;3.45;1.60;;;15.30;58.10;;;;;;5107897;28;20199;-69
2021/04/26 10:21:41;;;;;;;3.90;1.90;;;15.20;55.50;;;;;;5105153;28;20626;-68
2021/04/26 10:24:19;;;;;;;1.55;1.20;;;15.20;56.70;;;;;;5091692;28;20221;-69
2021/04/26 10:26:48;;;;;;;2.95;1.60;;;15.10;56.80;;;;;;5100902;28;20197;-69
2021/04/26 10:29:17;;;;;;;2.33;1.55;;;15.10;57.80;;;;;;5111633;28;20230;-69
2021/04/26 10:32:17;;;;;;;1.55;1.05;;;15.10;57.50;;;;;;5110632;28;20219;-69
2021/04/26 10:35:11;;;;;;;4.70;1.70;;;15.10;58.50;;;;;;5091624;28;20200;-70
2021/04/26 10:37:38;;;;;;;3.08;1.52;;;15.10;58.60;;;;;;5059721;27;20197;-69
2021/04/26 10:40:20;;;;;;;1.48;1.15;;;15.10;58.50;;;;;;5104163;28;20193;-70
2021/04/26 10:42:48;;;;;;;3.05;1.27;;;15.10;58.30;;;;;;5092970;28;20575;-70
2021/04/26 10:45:23;;;;;;;1.55;1.45;;;15.10;58.50;;;;;;5103213;28;20196;-70
2021/04/26 10:48:09;;;;;;;3.47;1.50;;;15.00;57.30;;;;;;5110498;28;20224;-69
2021/04/26 10:50:39;;;;;;;1.90;1.60;;;15.00;56.40;;;;;;5106974;28;20288;-70
2021/04/26 10:53:06;;;;;;;7.20;1.45;;;15.00;57.80;;;;;;5104635;28;20192;-69
2021/04/26 10:55:47;;;;;;;3.47;1.27;;;15.00;58.00;;;;;;5095383;28;20193;-70
2021/04/26 10:58:39;;;;;;;3.03;1.58;;;15.00;58.60;;;;;;5096922;27;20707;-70
2021/04/26 11:01:06;;;;;;;2.63;1.60;;;15.00;58.00;;;;;;5111523;27;20188;-69
2021/04/26 11:03:36;;;;;;;1.90;1.10;;;14.90;57.70;;;;;;5099296;28;20242;-69
2021/04/26 11:06:18;;;;;;;1.88;1.67;;;14.90;58.90;;;;;;5090156;28;20204;-69
2021/04/26 11:08:48;;;;;;;3.38;2.53;;;14.90;58.20;;;;;;5095838;28;20655;-69
2021/04/26 11:11:18;;;;;;;3.80;1.90;;;14.90;57.80;;;;;;5082711;28;20201;-69
2021/04/26 11:13:52;;;;;;;3.03;1.70;;;14.90;56.70;;;;;;5091700;28;20284;-70
2021/04/26 11:16:21;;;;;;;1.52;1.40;;;14.80;56.70;;;;;;5098955;28;20659;-69
2021/04/26 11:19:09;;;;;;;5.70;1.63;;;14.80;57.70;;;;;;5099337;28;20596;-70
2021/04/26 11:21:56;;;;;;;2.40;2.20;;;14.80;57.20;;;;;;5100843;28;20280;-68
2021/04/26 11:25:05;;;;;;;6.93;1.85;;;14.80;56.50;;;;;;5091090;28;20245;-70
2021/04/26 11:27:33;;;;;;;1.80;1.55;;;14.80;57.60;;;;;;5109876;28;20535;-71
2021/04/26 11:30:15;;;;;;;2.78;1.52;;;14.80;57.50;;;;;;5103550;28;20270;-71
2021/04/26 11:33:13;;;;;;;2.28;1.58;;;14.70;57.40;;;;;;5089050;28;20565;-70
2021/04/26 11:36:12;;;;;;;3.03;2.72;;;14.70;58.20;;;;;;5105231;28;20184;-70
2021/04/26 11:38:40;;;;;;;2.72;1.90;;;14.70;56.70;;;;;;5090343;28;20517;-70
2021/04/26 11:41:07;;;;;;;2.28;1.65;;;14.70;57.10;;;;;;5090093;28;20262;-68
2021/04/26 11:43:34;;;;;;;3.15;2.08;;;14.70;58.00;;;;;;5095383;28;20204;-69
2021/04/26 11:46:00;;;;;;;1.95;1.67;;;14.70;57.20;;;;;;5102601;28;20213;-70
2021/04/26 11:48:27;;;;;;;2.28;1.90;;;14.70;56.50;;;;;;5099341;28;20196;-70
2021/04/26 11:50:54;;;;;;;3.80;1.90;;;14.70;57.20;;;;;;5091766;28;20307;-69
2021/04/26 11:53:28;;;;;;;4.85;2.50;;;14.70;57.10;;;;;;5100580;28;20219;-69
2021/04/26 11:55:55;;;;;;;5.15;1.85;;;14.60;56.40;;;;;;5090166;28;20201;-69
2021/04/26 11:58:26;;;;;;;4.47;2.53;;;14.60;56.60;;;;;;5094556;28;20561;-69
2021/04/26 12:01:04;;;;;;;1.45;1.30;;;14.60;56.40;;;;;;5110157;28;20791;-70
2021/04/26 12:03:30;;;;;;;1.65;1.35;;;14.60;56.90;;;;;;5097543;28;20572;-71
2021/04/26 12:06:00;;;;;;;2.08;1.85;;;14.60;58.10;;;;;;5097474;28;20216;-72
2021/04/26 12:08:41;;;;;;;1.92;1.48;;;14.60;58.30;;;;;;5091495;28;20197;-71
2021/04/26 12:11:15;;;;;;;2.10;1.83;;;14.60;57.80;;;;;;5091902;28;20207;-71
2021/04/26 12:13:41;;;;;;;2.60;2.05;;;14.60;58.10;;;;;;5110620;28;20694;-71
2021/04/26 12:16:07;;;;;;;2.53;1.85;;;14.60;57.40;;;;;;5111071;28;20215;-71
2021/04/26 12:18:33;;;;;;;3.08;2.38;;;14.60;57.20;;;;;;5106276;28;20194;-71
2021/04/26 12:20:59;;;;;;;2.10;1.90;;;14.50;56.50;;;;;;5089793;28;20696;-71
2021/04/26 12:23:26;;;;;;;6.00;2.13;;;14.50;56.30;;;;;;5090134;28;20225;-71
2021/04/26 12:25:52;;;;;;;1.77;1.67;;;14.50;56.10;;;;;;5089839;28;20193;-71
2021/04/26 12:28:20;;;;;;;3.80;1.60;;;14.50;56.80;;;;;;5089291;28;20872;-71
2021/04/26 12:30:48;;;;;;;4.00;2.15;;;14.50;56.90;;;;;;5090397;28;20225;-71
2021/04/26 12:33:20;;;;;;;2.63;1.90;;;14.50;56.70;;;;;;5090518;28;20522;-71
2021/04/26 12:35:47;;;;;;;2.95;1.92;;;14.50;56.70;;;;;;5104118;28;20232;-71
2021/04/26 12:38:14;;;;;;;1.65;1.55;;;14.40;57.20;;;;;;5110944;28;20224;-71
2021/04/26 12:40:40;;;;;;;2.35;2.10;;;14.50;57.50;;;;;;5090896;28;20242;-71
2021/04/26 12:43:09;;;;;;;2.03;1.50;;;14.40;57.50;;;;;;5090109;28;20233;-70
2021/04/26 12:45:40;;;;;;;1.55;1.40;;;14.40;57.60;;;;;;5090473;28;20204;-71
2021/04/26 12:48:09;;;;;;;3.50;1.45;;;14.40;57.70;;;;;;5089909;28;20201;-70
2021/04/26 12:50:38;;;;;;;2.88;2.22;;;14.40;57.70;;;;;;5090429;28;20678;-71
2021/04/26 12:53:15;;;;;;;2.53;2.00;;;14.40;57.30;;;;;;5090584;28;20209;-71
2021/04/26 12:55:45;;;;;;;1.90;1.67;;;14.40;56.30;;;;;;5090297;28;20208;-72
2021/04/26 12:58:14;;;;;;;3.13;1.60;;;14.40;56.50;;;;;;5090135;28;20209;-71
2021/04/26 13:00:44;;;;;;;4.47;2.00;;;14.40;56.80;;;;;;5097824;28;20205;-72